createdAt,value
2023-03-27T00:01:28.365Z,101634.88
2023-03-27T00:03:55.979Z,101639.53
2023-03-27T00:06:25.451Z,101640.38
2023-03-27T00:08:52.686Z,101645.97
2023-03-27T00:11:20.617Z,101643.22
2023-03-27T00:13:51.334Z,101650.97
2023-03-27T00:16:19.882Z,101646.56
2023-03-27T00:18:47.128Z,101654.44
2023-03-27T00:21:14.597Z,101654.91
2023-03-27T00:23:42.923Z,101653.22
2023-03-27T00:26:12.313Z,101669.13
2023-03-27T00:28:39.746Z,101672.81
2023-03-27T00:31:10.560Z,101671.13
2023-03-27T00:33:38.309Z,101667.09
2023-03-27T00:36:05.727Z,101672.69
2023-03-27T00:38:34.434Z,101688.34
2023-03-27T00:41:01.755Z,101684.50
2023-03-27T00:43:30.468Z,101678.44
2023-03-27T00:46:01.858Z,101685.47
2023-03-27T00:48:31.422Z,101681.88
2023-03-27T00:50:58.863Z,101683.66
2023-03-27T00:53:28.222Z,101692.28
2023-03-27T00:55:56.848Z,101696.69
2023-03-27T00:58:28.466Z,101703.72
2023-03-27T01:00:57.057Z,101703.81
2023-03-27T01:03:27.496Z,101720.66
2023-03-27T01:05:55.908Z,101720.88
2023-03-27T01:08:23.343Z,101711.69
2023-03-27T01:10:50.926Z,101716.94
2023-03-27T01:13:27.543Z,101717.09
2023-03-27T01:16:02.211Z,101723.88
2023-03-27T01:18:32.464Z,101731.63
2023-03-27T01:21:02.942Z,101725.44
2023-03-27T01:23:35.862Z,101729.22
2023-03-27T01:26:35.216Z,101721.25
2023-03-27T01:29:07.424Z,101727.56
2023-03-27T01:31:35.004Z,101718.97
2023-03-27T01:34:05.176Z,101717.56
2023-03-27T01:36:32.655Z,101729.00
2023-03-27T01:39:03.231Z,101725.53
2023-03-27T01:41:32.773Z,101731.47
2023-03-27T01:44:05.108Z,101736.03
2023-03-27T01:46:32.722Z,101731.72
2023-03-27T01:49:03.403Z,101731.84
2023-03-27T01:51:33.536Z,101732.81
2023-03-27T01:54:05.529Z,101740.69
2023-03-27T01:56:38.038Z,101738.06
2023-03-27T01:59:09.916Z,101729.38
2023-03-27T02:01:39.590Z,101733.63
2023-03-27T02:04:10.124Z,101733.53
2023-03-27T02:06:40.549Z,101736.25
2023-03-27T02:09:11.817Z,101743.78
2023-03-27T02:11:41.966Z,101751.16
2023-03-27T02:14:12.944Z,101755.94
2023-03-27T02:16:43.017Z,101764.50
2023-03-27T02:19:14.636Z,101778.34
2023-03-27T02:21:42.141Z,101778.44
2023-03-27T02:24:09.492Z,101777.50
2023-03-27T02:26:36.994Z,101779.53
2023-03-27T02:29:05.510Z,101779.66
2023-03-27T02:31:41.737Z,101786.56
2023-03-27T02:34:12.383Z,101786.78
2023-03-27T02:36:43.889Z,101777.47
2023-03-27T02:39:14.017Z,101776.78
2023-03-27T02:41:44.370Z,101777.00
2023-03-27T02:44:12.802Z,101775.31
2023-03-27T02:46:44.796Z,101785.81
2023-03-27T02:49:16.934Z,101798.22
2023-03-27T02:51:48.365Z,101796.63
2023-03-27T02:54:17.657Z,101792.38
2023-03-27T02:56:47.629Z,101789.50
2023-03-27T02:59:19.844Z,101797.38
2023-03-27T03:01:47.352Z,101807.03
2023-03-27T03:04:18.475Z,101803.44
2023-03-27T03:06:45.931Z,101815.00
2023-03-27T03:09:13.722Z,101828.25
2023-03-27T03:11:46.791Z,101832.50
2023-03-27T03:14:14.115Z,101838.72
2023-03-27T03:16:41.623Z,101837.16
2023-03-27T03:19:09.367Z,101850.16
2023-03-27T03:21:36.845Z,101842.41
2023-03-27T03:24:04.023Z,101844.06
2023-03-27T03:26:31.250Z,101846.94
2023-03-27T03:29:00.310Z,101849.66
2023-03-27T03:31:28.431Z,101841.97
2023-03-27T03:33:55.613Z,101854.13
2023-03-27T03:36:22.791Z,101867.25
2023-03-27T03:38:49.972Z,101858.66
2023-03-27T03:41:17.364Z,101862.13
2023-03-27T03:43:44.431Z,101870.19
2023-03-27T03:46:11.509Z,101869.59
2023-03-27T03:48:38.636Z,101875.78
2023-03-27T03:51:06.076Z,101869.00
2023-03-27T03:53:33.501Z,101872.66
2023-03-27T03:56:00.557Z,101883.59
2023-03-27T03:58:34.450Z,101883.91
2023-03-27T04:01:03.417Z,101882.47
2023-03-27T04:03:33.879Z,101881.53
2023-03-27T04:06:01.551Z,101889.59
2023-03-27T04:08:28.752Z,101888.97
2023-03-27T04:10:56.138Z,101895.16
2023-03-27T04:13:23.584Z,101892.53
2023-03-27T04:15:51.908Z,101905.88
2023-03-27T04:18:20.153Z,101910.38
2023-03-27T04:20:50.628Z,101918.03
2023-03-27T04:23:19.099Z,101917.06
2023-03-27T04:25:47.792Z,101913.50
2023-03-27T04:28:18.567Z,101911.03
2023-03-27T04:30:50.738Z,101916.44
2023-03-27T04:33:19.068Z,101924.41
2023-03-27T04:35:46.954Z,101921.09
2023-03-27T04:38:34.616Z,101928.19
2023-03-27T04:41:02.456Z,101920.56
2023-03-27T04:43:29.647Z,101922.34
2023-03-27T04:45:57.414Z,101922.34
2023-03-27T04:48:24.714Z,101929.88
2023-03-27T04:50:51.911Z,101923.81
2023-03-27T04:53:20.882Z,101931.06
2023-03-27T04:55:51.626Z,101928.53
2023-03-27T04:58:19.340Z,101930.31
2023-03-27T05:00:50.916Z,101935.34
2023-03-27T05:03:21.333Z,101936.19
2023-03-27T05:05:50.166Z,101933.34
2023-03-27T05:08:17.552Z,101941.19
2023-03-27T05:10:45.354Z,101942.88
2023-03-27T05:13:12.878Z,101938.59
2023-03-27T05:15:39.938Z,101941.09
2023-03-27T05:18:07.684Z,101931.56
2023-03-27T05:20:35.426Z,101937.00
2023-03-27T05:23:02.636Z,101937.84
2023-03-27T05:25:30.446Z,101939.75
2023-03-27T05:27:58.752Z,101942.47
2023-03-27T05:30:27.204Z,101955.13
2023-03-27T05:32:54.665Z,101962.28
2023-03-27T05:35:23.961Z,101954.63
2023-03-27T05:37:53.213Z,101952.94
2023-03-27T05:40:22.926Z,101968.56
2023-03-27T05:42:50.948Z,101972.03
2023-03-27T05:45:18.367Z,101964.38
2023-03-27T05:47:46.043Z,101968.78
2023-03-27T05:50:14.786Z,101968.66
2023-03-27T05:52:42.266Z,101969.63
2023-03-27T05:55:09.581Z,101978.31
2023-03-27T05:57:38.779Z,101989.84
2023-03-27T06:00:10.953Z,101994.97
2023-03-27T06:02:39.516Z,101995.06
2023-03-27T06:05:13.851Z,102002.19
2023-03-27T06:07:43.133Z,102002.50
2023-03-27T06:10:13.334Z,101992.56
2023-03-27T06:12:42.137Z,101992.22
2023-03-27T06:15:09.855Z,102004.50
2023-03-27T06:17:39.273Z,102002.69
2023-03-27T06:20:11.267Z,102002.69
2023-03-27T06:22:42.751Z,102002.41
2023-03-27T06:25:10.344Z,102008.38
2023-03-27T06:27:38.521Z,102016.13
2023-03-27T06:30:06.332Z,102022.22
2023-03-27T06:32:33.521Z,102017.69
2023-03-27T06:35:00.618Z,102027.03
2023-03-27T06:37:27.932Z,102032.81
2023-03-27T06:39:55.502Z,102035.81
2023-03-27T06:42:22.829Z,102038.34
2023-03-27T06:44:50.775Z,102034.66
2023-03-27T06:47:18.363Z,102045.88
2023-03-27T06:49:48.211Z,102046.41
2023-03-27T06:52:15.680Z,102043.47
2023-03-27T06:54:42.856Z,102053.84
2023-03-27T06:57:09.938Z,102049.38
2023-03-27T06:59:37.093Z,102052.28
2023-03-27T07:02:04.563Z,102065.81
2023-03-27T07:04:32.087Z,102062.13
2023-03-27T07:06:59.419Z,102055.94
2023-03-27T07:09:26.674Z,102065.38
2023-03-27T07:11:54.586Z,102068.31
2023-03-27T07:14:21.739Z,102073.22
2023-03-27T07:16:48.978Z,102068.59
2023-03-27T07:19:16.362Z,102079.97
2023-03-27T07:21:43.638Z,102071.63
2023-03-27T07:24:10.800Z,102086.66
2023-03-27T07:26:37.869Z,102090.22
2023-03-27T07:29:06.486Z,102088.88
2023-03-27T07:31:55.003Z,102088.75
2023-03-27T07:34:21.436Z,102095.72
2023-03-27T07:36:49.460Z,102089.38
2023-03-27T07:39:16.683Z,102093.81
2023-03-27T07:41:44.070Z,102085.44
2023-03-27T07:44:11.770Z,102090.38
2023-03-27T07:46:38.929Z,102101.47
2023-03-27T07:49:06.132Z,102097.94
2023-03-27T07:51:33.564Z,102091.13
2023-03-27T07:54:04.762Z,102099.13
2023-03-27T07:56:34.675Z,102105.44
2023-03-27T07:59:02.080Z,102104.19
2023-03-27T08:01:29.700Z,102101.25
2023-03-27T08:03:58.379Z,102115.56
2023-03-27T08:06:44.328Z,102114.59
2023-03-27T08:09:13.181Z,102124.84
2023-03-27T08:11:41.688Z,102124.19
2023-03-27T08:14:09.843Z,102121.34
2023-03-27T08:16:51.529Z,102129.84
2023-03-27T08:19:19.303Z,102126.34
2023-03-27T08:21:46.389Z,102131.28
2023-03-27T08:24:13.582Z,102139.91
2023-03-27T08:26:40.846Z,102137.53
2023-03-27T08:29:08.778Z,102138.59
2023-03-27T08:31:36.131Z,102136.31
2023-03-27T08:34:03.320Z,102138.47
2023-03-27T08:36:34.904Z,102137.03
2023-03-27T08:39:03.265Z,102149.56
2023-03-27T08:41:34.320Z,102151.63
2023-03-27T08:44:05.672Z,102148.75
2023-03-27T08:46:39.321Z,102145.31
2023-03-27T08:49:07.545Z,102150.41
2023-03-27T08:51:39.099Z,102153.28
2023-03-27T08:54:09.377Z,102154.59
2023-03-27T08:56:37.771Z,102159.88
2023-03-27T08:59:06.325Z,102165.47
2023-03-27T09:01:33.989Z,102160.75
2023-03-27T09:04:02.306Z,102161.09
2023-03-27T09:06:39.763Z,102157.53
2023-03-27T09:09:07.765Z,102161.25
2023-03-27T09:11:35.267Z,102167.91
2023-03-27T09:14:10.117Z,102168.50
2023-03-27T09:16:57.209Z,102165.78
2023-03-27T09:19:28.709Z,102166.00
2023-03-27T09:21:58.840Z,102169.25
2023-03-27T09:24:29.813Z,102165.66
2023-03-27T09:27:14.859Z,102168.88
2023-03-27T09:29:42.648Z,102167.94
2023-03-27T09:32:15.035Z,102170.44
2023-03-27T09:34:42.776Z,102168.44
2023-03-27T09:37:12.394Z,102166.19
2023-03-27T09:39:43.288Z,102171.34
2023-03-27T09:42:17.511Z,102171.34
2023-03-27T09:44:46.749Z,102171.94
2023-03-27T09:47:16.511Z,102172.31
2023-03-27T09:49:47.052Z,102170.63
2023-03-27T09:52:34.050Z,102177.97
2023-03-27T09:55:01.162Z,102174.84
2023-03-27T09:57:32.690Z,102173.66
2023-03-27T10:00:08.102Z,102176.63
2023-03-27T10:02:35.333Z,102184.19
2023-03-27T10:05:03.933Z,102178.66
2023-03-27T10:07:31.424Z,102181.31
2023-03-27T10:10:01.667Z,102180.34
2023-03-27T10:12:28.854Z,102183.56
2023-03-27T10:14:56.919Z,102180.00
2023-03-27T10:17:26.611Z,102177.72
2023-03-27T10:19:55.767Z,102184.88
2023-03-27T10:22:26.005Z,102184.66
2023-03-27T10:24:53.836Z,102185.84
2023-03-27T10:27:23.960Z,102187.03
2023-03-27T10:29:52.039Z,102188.09
2023-03-27T10:32:19.566Z,102197.56
2023-03-27T10:34:49.803Z,102185.84
2023-03-27T10:37:20.894Z,102189.19
2023-03-27T10:39:48.237Z,102189.44
2023-03-27T10:42:17.228Z,102180.81
2023-03-27T10:44:46.465Z,102183.31
2023-03-27T10:47:17.107Z,102178.53
2023-03-27T10:49:48.992Z,102186.88
2023-03-27T10:52:19.302Z,102185.69
2023-03-27T10:54:55.058Z,102188.84
2023-03-27T10:57:25.320Z,102186.88
2023-03-27T10:59:57.507Z,102184.88
2023-03-27T11:02:32.126Z,102181.97
2023-03-27T11:05:03.372Z,102185.44
2023-03-27T11:07:34.248Z,102189.22
2023-03-27T11:10:03.344Z,102186.84
2023-03-27T11:12:33.154Z,102193.16
2023-03-27T11:15:04.869Z,102190.88
2023-03-27T11:17:36.718Z,102185.59
2023-03-27T11:20:08.998Z,102185.81
2023-03-27T11:22:39.204Z,102191.72
2023-03-27T11:25:08.447Z,102193.41
2023-03-27T11:27:36.184Z,102187.63
2023-03-27T11:30:05.159Z,102194.81
2023-03-27T11:32:38.350Z,102194.16
2023-03-27T11:35:09.553Z,102193.31
2023-03-27T11:37:40.090Z,102190.09
2023-03-27T11:40:11.128Z,102193.63
2023-03-27T11:42:43.020Z,102194.94
2023-03-27T11:45:13.473Z,102201.53
2023-03-27T11:47:43.945Z,102206.06
2023-03-27T11:50:16.280Z,102198.03
2023-03-27T11:52:43.683Z,102201.41
2023-03-27T11:55:13.751Z,102194.19
2023-03-27T11:57:52.558Z,102192.63
2023-03-27T12:00:25.883Z,102190.78
2023-03-27T12:02:55.507Z,102196.53
2023-03-27T12:05:26.112Z,102200.06
2023-03-27T12:07:56.587Z,102194.97
2023-03-27T12:10:32.303Z,102198.09
2023-03-27T12:13:03.461Z,102198.16
2023-03-27T12:15:30.786Z,102209.72
2023-03-27T12:18:01.167Z,102205.59
2023-03-27T12:20:34.101Z,102208.53
2023-03-27T12:23:04.285Z,102206.63
2023-03-27T12:25:36.214Z,102206.94
2023-03-27T12:28:03.783Z,102201.94
2023-03-27T12:30:33.830Z,102197.25
2023-03-27T12:33:08.691Z,102196.84
2023-03-27T12:35:42.805Z,102205.78
2023-03-27T12:38:35.161Z,102210.13
2023-03-27T12:41:05.620Z,102207.19
2023-03-27T12:43:39.860Z,102209.59
2023-03-27T12:46:30.834Z,102213.91
2023-03-27T12:48:58.090Z,102217.13
2023-03-27T12:51:39.411Z,102211.38
2023-03-27T12:54:22.312Z,102209.38
2023-03-27T12:57:06.129Z,102214.53
2023-03-27T12:59:38.293Z,102209.97
2023-03-27T13:02:05.313Z,102222.50
2023-03-27T13:04:48.173Z,102211.50
2023-03-27T13:07:15.187Z,102209.97
2023-03-27T13:09:53.210Z,102207.69
2023-03-27T13:12:58.901Z,102201.59
2023-03-27T13:15:44.384Z,102209.47
2023-03-27T13:18:11.254Z,102203.94
2023-03-27T13:20:46.390Z,102199.31
2023-03-27T13:23:23.612Z,102197.97
2023-03-27T13:26:21.979Z,102196.56
2023-03-27T13:31:53.610Z,102198.97
2023-03-27T13:34:32.177Z,102187.84
2023-03-27T13:37:07.929Z,102186.47
2023-03-27T13:39:46.215Z,102187.28
2023-03-27T13:42:18.335Z,102186.03
2023-03-27T13:44:57.377Z,102187.25
2023-03-27T13:47:36.617Z,102194.34
2023-03-27T13:50:03.656Z,102188.34
2023-03-27T13:52:43.739Z,102186.53
2023-03-27T13:55:17.411Z,102189.81
2023-03-27T13:57:56.318Z,102194.28
2023-03-27T14:00:31.168Z,102195.94
2023-03-27T14:03:17.044Z,102186.56
2023-03-27T14:06:01.659Z,102189.91
2023-03-27T14:08:34.854Z,102196.09
2023-03-27T14:11:24.026Z,102199.25
2023-03-27T14:14:09.348Z,102194.69
2023-03-27T14:16:41.557Z,102190.69
2023-03-27T14:19:17.740Z,102192.66
2023-03-27T14:22:05.603Z,102196.56
2023-03-27T14:24:32.744Z,102191.19
2023-03-27T14:27:00.827Z,102187.41
2023-03-27T14:29:29.169Z,102179.41
2023-03-27T14:32:01.891Z,102185.69
2023-03-27T14:34:35.223Z,102183.91
2023-03-27T14:37:29.341Z,102182.25
2023-03-27T14:39:57.419Z,102184.47
2023-03-27T14:42:28.715Z,102178.19
2023-03-27T14:45:11.331Z,102179.47
2023-03-27T14:47:38.235Z,102176.91
2023-03-27T14:50:06.524Z,102175.38
2023-03-27T14:52:37.738Z,102179.28
2023-03-27T14:55:04.912Z,102178.31
2023-03-27T14:57:31.673Z,102172.78
2023-03-27T14:59:59.260Z,102163.78
2023-03-27T15:02:30.825Z,102162.50
2023-03-27T15:05:18.540Z,102164.84
2023-03-27T15:07:49.170Z,102174.72
2023-03-27T15:10:16.093Z,102174.00
2023-03-27T15:12:47.404Z,102174.31
2023-03-27T15:15:28.738Z,102165.56
2023-03-27T15:18:03.565Z,102165.88
2023-03-27T15:20:32.117Z,102169.63
2023-03-27T15:23:06.890Z,102165.03
2023-03-27T15:25:42.883Z,102159.75
2023-03-27T15:28:14.415Z,102159.03
2023-03-27T15:30:48.252Z,102165.72
2023-03-27T15:33:20.549Z,102163.06
2023-03-27T15:35:49.284Z,102159.72
2023-03-27T15:38:17.500Z,102153.19
2023-03-27T15:40:46.879Z,102164.38
2023-03-27T15:43:13.647Z,102158.97
2023-03-27T15:45:52.390Z,102161.84
2023-03-27T15:48:20.662Z,102165.22
2023-03-27T15:50:54.456Z,102162.56
2023-03-27T15:53:32.498Z,102164.91
2023-03-27T15:56:01.632Z,102162.69
2023-03-27T15:58:34.195Z,102158.34
2023-03-27T16:01:02.371Z,102154.84
2023-03-27T16:03:34.683Z,102158.41
2023-03-27T16:06:02.891Z,102150.47
2023-03-27T16:08:41.250Z,102143.22
2023-03-27T16:11:08.020Z,102139.28
2023-03-27T16:13:36.906Z,102142.66
2023-03-27T16:16:05.296Z,102149.72
2023-03-27T16:18:36.998Z,102142.06
2023-03-27T16:21:07.288Z,102145.94
2023-03-27T16:23:34.131Z,102136.22
2023-03-27T16:26:01.576Z,102136.94
2023-03-27T16:28:30.012Z,102132.22
2023-03-27T16:30:58.250Z,102130.25
2023-03-27T16:33:25.835Z,102138.50
2023-03-27T16:35:52.785Z,102131.97
2023-03-27T16:38:20.136Z,102132.69
2023-03-27T16:40:46.885Z,102128.38
2023-03-27T16:43:13.900Z,102127.28
2023-03-27T16:45:40.758Z,102114.09
2023-03-27T16:48:08.681Z,102118.38
2023-03-27T16:50:35.684Z,102113.25
2023-03-27T16:53:02.878Z,102121.56
2023-03-27T16:55:29.853Z,102117.94
2023-03-27T16:57:56.829Z,102122.41
2023-03-27T17:00:23.770Z,102118.09
2023-03-27T17:02:50.771Z,102116.28
2023-03-27T17:05:17.893Z,102110.16
2023-03-27T17:07:46.883Z,102107.66
2023-03-27T17:10:14.445Z,102108.50
2023-03-27T17:12:41.234Z,102108.22
2023-03-27T17:15:08.466Z,102111.44
2023-03-27T17:17:35.637Z,102103.94
2023-03-27T17:20:03.894Z,102094.72
2023-03-27T17:22:31.908Z,102107.75
2023-03-27T17:25:01.339Z,102107.06
2023-03-27T17:27:28.540Z,102100.09
2023-03-27T17:29:58.366Z,102102.03
2023-03-27T17:32:27.307Z,102105.06
2023-03-27T17:34:54.742Z,102109.66
2023-03-27T17:37:21.842Z,102111.31
2023-03-27T17:39:49.005Z,102106.19
2023-03-27T17:42:15.952Z,102112.41
2023-03-27T17:44:43.017Z,102111.03
2023-03-27T17:47:09.765Z,102126.97
2023-03-27T17:49:36.703Z,102120.84
2023-03-27T17:52:08.407Z,102114.06
2023-03-27T17:54:35.364Z,102124.00
2023-03-27T17:57:02.466Z,102130.41
2023-03-27T17:59:31.616Z,102130.91
2023-03-27T18:01:58.651Z,102131.19
2023-03-27T18:04:26.154Z,102124.03
2023-03-27T18:06:53.265Z,102130.66
2023-03-27T18:09:19.992Z,102127.44
2023-03-27T18:11:48.041Z,102121.84
2023-03-27T18:14:15.853Z,102127.38
2023-03-27T18:16:46.315Z,102119.84
2023-03-27T18:19:13.817Z,102130.75
2023-03-27T18:21:40.988Z,102131.84
2023-03-27T18:24:08.348Z,102130.31
2023-03-27T18:26:35.500Z,102126.94
2023-03-27T18:29:02.932Z,102129.00
2023-03-27T18:31:29.984Z,102128.56
2023-03-27T18:33:57.095Z,102128.22
2023-03-27T18:36:23.990Z,102125.00
2023-03-27T18:38:52.347Z,102131.25
2023-03-27T18:41:19.563Z,102129.56
2023-03-27T18:43:47.120Z,102130.41
2023-03-27T18:46:17.338Z,102131.34
2023-03-27T18:48:45.480Z,102131.34
2023-03-27T18:51:13.058Z,102131.50
2023-03-27T18:53:40.088Z,102129.09
2023-03-27T18:56:08.314Z,102129.94
2023-03-27T18:58:36.227Z,102118.94
2023-03-27T19:01:08.668Z,102126.16
2023-03-27T19:03:36.749Z,102122.78
2023-03-27T19:06:08.022Z,102124.84
2023-03-27T19:08:38.338Z,102125.81
2023-03-27T19:11:05.904Z,102124.22
2023-03-27T19:13:32.950Z,102129.88
2023-03-27T19:16:00.292Z,102132.50
2023-03-27T19:18:30.306Z,102128.19
2023-03-27T19:21:01.300Z,102130.13
2023-03-27T19:23:28.744Z,102128.00
2023-03-27T19:25:55.815Z,102129.91
2023-03-27T19:28:22.872Z,102130.16
2023-03-27T19:30:53.156Z,102125.84
2023-03-27T19:33:20.238Z,102123.38
2023-03-27T19:35:47.213Z,102122.63
2023-03-27T19:38:14.453Z,102124.69
2023-03-27T19:40:41.571Z,102121.44
2023-03-27T19:43:08.827Z,102128.50
2023-03-27T19:45:35.910Z,102125.06
2023-03-27T19:48:02.892Z,102133.28
2023-03-27T19:50:30.088Z,102136.19
2023-03-27T19:53:08.160Z,102135.22
2023-03-27T19:55:36.077Z,102133.66
2023-03-27T19:58:03.046Z,102134.50
2023-03-27T20:00:31.629Z,102130.06
2023-03-27T20:03:00.023Z,102134.50
2023-03-27T20:05:28.354Z,102129.38
2023-03-27T20:07:55.519Z,102133.91
2023-03-27T20:10:22.789Z,102144.56
2023-03-27T20:12:49.759Z,102141.34
2023-03-27T20:15:16.983Z,102138.13
2023-03-27T20:17:44.049Z,102148.03
2023-03-27T20:20:11.748Z,102146.59
2023-03-27T20:22:50.023Z,102146.84
2023-03-27T20:25:21.713Z,102150.44
2023-03-27T20:27:48.907Z,102158.34
2023-03-27T20:30:18.499Z,102160.13
2023-03-27T20:32:45.861Z,102153.56
2023-03-27T20:35:22.870Z,102159.06
2023-03-27T20:37:56.587Z,102154.88
2023-03-27T20:40:24.329Z,102154.38
2023-03-27T20:43:03.574Z,102153.06
2023-03-27T20:45:31.441Z,102157.84
2023-03-27T20:48:01.791Z,102156.53
2023-03-27T20:50:31.503Z,102156.78
2023-03-27T20:52:58.625Z,102162.25
2023-03-27T20:55:33.545Z,102159.75
2023-03-27T20:58:03.428Z,102151.13
2023-03-27T21:00:30.755Z,102159.28
2023-03-27T21:02:57.960Z,102150.66
2023-03-27T21:05:25.255Z,102150.97
2023-03-27T21:07:52.901Z,102151.91
2023-03-27T21:10:21.800Z,102154.91
2023-03-27T21:12:49.158Z,102150.84
2023-03-27T21:15:16.297Z,102149.50
2023-03-27T21:17:43.246Z,102147.81
2023-03-27T21:20:10.661Z,102140.88
2023-03-27T21:22:37.676Z,102145.53
2023-03-27T21:25:05.063Z,102131.66
2023-03-27T21:27:32.375Z,102141.47
2023-03-27T21:29:59.398Z,102139.91
2023-03-27T21:32:26.818Z,102139.19
2023-03-27T21:34:53.961Z,102136.69
2023-03-27T21:37:21.027Z,102132.38
2023-03-27T21:39:55.509Z,102134.28
2023-03-27T21:42:22.516Z,102134.41
2023-03-27T21:44:53.793Z,102136.28
2023-03-27T21:47:22.287Z,102132.00
2023-03-27T21:49:49.267Z,102128.75
2023-03-27T21:52:16.164Z,102129.94
2023-03-27T21:54:53.028Z,102122.91
2023-03-27T21:57:27.217Z,102138.66
2023-03-27T21:59:54.108Z,102134.47
2023-03-27T22:02:21.102Z,102130.41
2023-03-27T22:04:48.031Z,102126.22
2023-03-27T22:07:15.164Z,102131.69
2023-03-27T22:09:43.724Z,102125.84
2023-03-27T22:12:10.582Z,102126.91
2023-03-27T22:14:40.809Z,102116.72
2023-03-27T22:17:11.221Z,102118.53
2023-03-27T22:19:38.568Z,102115.91
2023-03-27T22:22:05.561Z,102113.16
2023-03-27T22:24:32.557Z,102116.63
2023-03-27T22:26:59.426Z,102106.34
2023-03-27T22:29:26.679Z,102112.44
2023-03-27T22:31:53.780Z,102109.91
2023-03-27T22:34:24.103Z,102115.28
2023-03-27T22:37:33.033Z,102107.53
2023-03-27T22:39:59.937Z,102109.31
2023-03-27T22:42:29.498Z,102117.28
2023-03-27T22:44:56.303Z,102109.53
2023-03-27T22:47:23.036Z,102114.66
2023-03-27T22:49:50.136Z,102113.94
2023-03-27T22:52:17.156Z,102113.94
2023-03-27T22:54:43.917Z,102107.25
2023-03-27T22:57:10.809Z,102102.09
2023-03-27T22:59:37.592Z,102098.84
2023-03-27T23:02:04.423Z,102098.75
2023-03-27T23:04:31.605Z,102100.53
2023-03-27T23:07:00.746Z,102096.97
2023-03-27T23:09:27.521Z,102094.34
2023-03-27T23:11:54.269Z,102089.09
2023-03-27T23:14:21.002Z,102089.19
2023-03-27T23:16:47.778Z,102087.66
2023-03-27T23:19:14.650Z,102090.28
2023-03-27T23:21:42.106Z,102086.66
2023-03-27T23:24:08.909Z,102086.81
2023-03-27T23:26:35.639Z,102092.25
2023-03-27T23:29:02.382Z,102095.97
2023-03-27T23:31:29.420Z,102091.66
2023-03-27T23:33:56.206Z,102082.94
2023-03-27T23:36:23.947Z,102087.34
2023-03-27T23:38:51.871Z,102083.88
2023-03-27T23:41:19.173Z,102076.84
2023-03-27T23:43:46.216Z,102076.00
2023-03-27T23:46:15.882Z,102079.59
2023-03-27T23:48:43.754Z,102073.72
2023-03-27T23:51:11.377Z,102073.03
2023-03-27T23:53:38.120Z,102080.25
2023-03-27T23:56:05.181Z,102082.03
2023-03-27T23:58:34.999Z,102076.94
